createdAt,value
2018-09-17T00:01:08.620Z,100186.80
2018-09-17T00:04:13.075Z,100191.47
2018-09-17T00:07:17.581Z,100192.38
2018-09-17T00:10:22.142Z,100191.92
2018-09-17T00:13:26.570Z,100193.37
2018-09-17T00:16:31.034Z,100191.55
2018-09-17T00:19:35.821Z,100192.08
2018-09-17T00:22:40.258Z,100192.26
2018-09-17T00:25:44.754Z,100183.31
2018-09-17T00:28:49.229Z,100185.14
2018-09-17T00:31:53.613Z,100188.16
2018-09-17T00:34:58.092Z,100188.83
2018-09-17T00:38:03.199Z,100192.84
2018-09-17T00:41:07.701Z,100189.53
2018-09-17T00:44:12.103Z,100186.30
2018-09-17T00:47:16.594Z,100183.14
2018-09-17T00:50:21.081Z,100194.05
2018-09-17T00:53:25.512Z,100188.54
2018-09-17T00:56:30.187Z,100187.76
2018-09-17T00:59:34.675Z,100189.47
2018-09-17T01:02:39.164Z,100186.18
2018-09-17T01:05:43.726Z,100189.70
2018-09-17T01:08:48.257Z,100189.94
2018-09-17T01:11:52.837Z,100186.64
2018-09-17T01:14:57.415Z,100187.28
2018-09-17T01:18:01.846Z,100183.95
2018-09-17T01:21:06.579Z,100186.13
2018-09-17T01:24:11.133Z,100180.02
2018-09-17T01:27:15.624Z,100185.94
2018-09-17T01:30:20.149Z,100192.74
2018-09-17T01:33:24.621Z,100195.91
2018-09-17T01:36:29.106Z,100187.30
2018-09-17T01:39:33.686Z,100187.81
2018-09-17T01:42:40.084Z,100179.91
2018-09-17T01:45:44.690Z,100185.87
2018-09-17T01:48:49.224Z,100180.44
2018-09-17T01:51:53.864Z,100177.98
2018-09-17T01:54:58.423Z,100175.16
2018-09-17T01:58:02.860Z,100174.33
2018-09-17T02:01:07.942Z,100176.59
2018-09-17T02:04:12.407Z,100181.86
2018-09-17T02:07:16.978Z,100179.34
2018-09-17T02:10:21.497Z,100178.95
2018-09-17T02:13:26.330Z,100186.90
2018-09-17T02:16:30.867Z,100194.14
2018-09-17T02:19:35.360Z,100191.72
2018-09-17T02:22:39.943Z,100201.91
2018-09-17T02:25:44.520Z,100210.16
2018-09-17T02:28:48.979Z,100206.95
2018-09-17T02:31:53.493Z,100208.30
2018-09-17T02:34:58.024Z,100210.83
2018-09-17T02:38:02.483Z,100203.99
2018-09-17T02:41:07.189Z,100212.59
2018-09-17T02:44:11.681Z,100208.70
2018-09-17T02:47:16.205Z,100205.52
2018-09-17T02:50:20.939Z,100206.27
2018-09-17T02:53:25.504Z,100207.19
2018-09-17T02:56:29.974Z,100200.84
2018-09-17T02:59:34.475Z,100208.69
2018-09-17T03:02:39.285Z,100211.61
2018-09-17T03:05:43.828Z,100207.00
2018-09-17T03:08:48.434Z,100220.22
2018-09-17T03:11:52.966Z,100223.39
2018-09-17T03:14:57.588Z,100225.83
2018-09-17T03:18:02.094Z,100223.98
2018-09-17T03:21:07.801Z,100219.36
2018-09-17T03:24:12.278Z,100227.55
2018-09-17T03:27:16.732Z,100226.34
2018-09-17T03:30:21.316Z,100226.73
2018-09-17T03:33:26.070Z,100222.39
2018-09-17T03:36:30.842Z,100229.20
2018-09-17T03:39:35.379Z,100229.36
2018-09-17T03:42:39.928Z,100228.23
2018-09-17T03:45:44.459Z,100235.31
2018-09-17T03:48:48.930Z,100238.86
2018-09-17T03:51:53.523Z,100241.52
2018-09-17T03:54:57.991Z,100241.17
2018-09-17T03:58:02.459Z,100246.41
2018-09-17T04:01:07.188Z,100237.37
2018-09-17T04:04:11.704Z,100232.14
2018-09-17T04:07:16.407Z,100247.92
2018-09-17T04:10:20.985Z,100241.94
2018-09-17T04:13:25.483Z,100242.45
2018-09-17T04:16:30.057Z,100234.67
2018-09-17T04:19:34.759Z,100237.79
2018-09-17T04:22:39.289Z,100235.38
2018-09-17T04:25:43.815Z,100238.62
2018-09-17T04:28:48.348Z,100239.20
2018-09-17T04:31:52.933Z,100237.39
2018-09-17T04:34:57.548Z,100235.22
2018-09-17T04:38:02.095Z,100232.05
2018-09-17T04:41:06.740Z,100237.37
2018-09-17T04:44:11.452Z,100246.65
2018-09-17T04:47:15.957Z,100248.42
2018-09-17T04:50:20.573Z,100255.30
2018-09-17T04:53:25.202Z,100255.98
2018-09-17T04:56:29.836Z,100257.98
2018-09-17T04:59:34.379Z,100259.98
2018-09-17T05:02:39.164Z,100252.25
2018-09-17T05:05:43.608Z,100257.69
2018-09-17T05:08:48.236Z,100254.19
2018-09-17T05:11:52.743Z,100261.75
2018-09-17T05:14:57.469Z,100263.27
2018-09-17T05:18:01.904Z,100265.41
2018-09-17T05:21:06.869Z,100265.02
2018-09-17T05:24:14.183Z,100273.39
2018-09-17T05:27:18.677Z,100273.44
2018-09-17T05:30:23.168Z,100268.22
2018-09-17T05:33:27.709Z,100269.44
2018-09-17T05:36:32.154Z,100264.34
2018-09-17T05:39:36.672Z,100270.14
2018-09-17T05:42:41.154Z,100274.59
2018-09-17T05:45:45.614Z,100274.16
2018-09-17T05:48:50.073Z,100280.34
2018-09-17T05:51:54.563Z,100282.80
2018-09-17T05:54:59.110Z,100284.76
2018-09-17T05:58:03.789Z,100287.57
2018-09-17T06:01:08.341Z,100296.38
2018-09-17T06:04:12.892Z,100295.59
2018-09-17T06:07:21.390Z,100294.84
2018-09-17T06:10:25.964Z,100286.17
2018-09-17T06:13:30.541Z,100292.25
2018-09-17T06:16:35.118Z,100281.55
2018-09-17T06:19:39.605Z,100282.11
2018-09-17T06:22:44.135Z,100279.14
2018-09-17T06:25:48.685Z,100283.31
2018-09-17T06:28:53.255Z,100285.59
2018-09-17T06:31:57.808Z,100290.45
2018-09-17T06:35:02.489Z,100285.36
2018-09-17T06:38:07.010Z,100292.34
2018-09-17T06:41:11.588Z,100288.37
2018-09-17T06:44:16.674Z,100294.77
2018-09-17T06:47:21.294Z,100290.47
2018-09-17T06:50:25.760Z,100286.17
2018-09-17T06:53:30.320Z,100285.52
2018-09-17T06:56:34.959Z,100288.97
2018-09-17T06:59:39.542Z,100287.06
2018-09-17T07:02:44.043Z,100288.44
2018-09-17T07:05:48.679Z,100293.02
2018-09-17T07:08:53.141Z,100295.53
2018-09-17T07:11:57.695Z,100291.47
2018-09-17T07:15:02.167Z,100284.86
2018-09-17T07:18:06.900Z,100282.55
2018-09-17T07:21:12.265Z,100288.09
2018-09-17T07:24:16.740Z,100285.10
2018-09-17T07:27:21.492Z,100289.91
2018-09-17T07:30:25.966Z,100282.83
2018-09-17T07:33:30.450Z,100282.23
2018-09-17T07:36:35.144Z,100279.02
2018-09-17T07:39:39.656Z,100278.89
2018-09-17T07:42:44.187Z,100275.28
2018-09-17T07:45:48.936Z,100274.15
2018-09-17T07:48:53.402Z,100258.56
2018-09-17T07:51:58.004Z,100272.81
2018-09-17T07:55:02.455Z,100265.33
2018-09-17T07:58:07.231Z,100272.80
2018-09-17T08:01:11.738Z,100268.80
2018-09-17T08:04:16.438Z,100265.61
2018-09-17T08:07:21.008Z,100259.46
2018-09-17T08:10:26.382Z,100262.78
2018-09-17T08:13:30.977Z,100264.11
2018-09-17T08:16:35.557Z,100271.43
2018-09-17T08:19:40.236Z,100266.95
2018-09-17T08:22:44.930Z,100258.26
2018-09-17T08:25:49.420Z,100256.48
2018-09-17T08:28:53.998Z,100257.59
2018-09-17T08:31:58.496Z,100257.28
2018-09-17T08:35:02.960Z,100246.10
2018-09-17T08:38:07.582Z,100244.41
2018-09-17T08:41:12.050Z,100245.25
2018-09-17T08:44:16.488Z,100241.33
2018-09-17T08:47:21.217Z,100230.06
2018-09-17T08:50:25.692Z,100230.92
2018-09-17T08:53:30.223Z,100232.73
2018-09-17T08:56:39.893Z,100234.69
2018-09-17T08:59:46.518Z,100236.58
2018-09-17T09:02:56.060Z,100234.05
2018-09-17T09:06:05.823Z,100233.19
2018-09-17T09:09:12.036Z,100229.05
2018-09-17T09:12:25.898Z,100229.35
2018-09-17T09:15:36.417Z,100225.23
2018-09-17T09:18:40.893Z,100220.62
2018-09-17T09:21:45.528Z,100214.81
2018-09-17T09:24:50.048Z,100216.09
2018-09-17T09:27:54.453Z,100205.36
2018-09-17T09:30:59.087Z,100205.90
2018-09-17T09:34:03.610Z,100207.58
2018-09-17T09:37:08.266Z,100200.16
2018-09-17T09:40:12.795Z,100199.19
2018-09-17T09:43:21.021Z,100205.92
2018-09-17T09:46:25.521Z,100191.91
2018-09-17T09:49:29.974Z,100187.64
2018-09-17T09:52:34.617Z,100185.13
2018-09-17T09:55:39.072Z,100181.44
2018-09-17T09:58:43.758Z,100175.81
2018-09-17T10:01:54.596Z,100174.12
2018-09-17T10:04:59.032Z,100173.77
2018-09-17T10:08:03.665Z,100172.67
2018-09-17T10:11:13.376Z,100167.17
2018-09-17T10:14:22.985Z,100159.22
2018-09-17T10:17:32.595Z,100163.52
2018-09-17T10:20:37.171Z,100159.06
2018-09-17T10:23:41.738Z,100154.76
2018-09-17T10:26:46.374Z,100150.59
2018-09-17T10:29:50.973Z,100140.08
2018-09-17T10:32:55.497Z,100140.34
2018-09-17T10:36:00.038Z,100131.26
2018-09-17T10:39:06.326Z,100132.16
2018-09-17T10:42:10.938Z,100130.08
2018-09-17T10:45:15.507Z,100123.40
2018-09-17T10:48:19.927Z,100117.20
2018-09-17T10:51:24.549Z,100111.63
2018-09-17T10:54:29.226Z,100108.39
2018-09-17T10:57:33.768Z,100101.27
2018-09-17T11:00:38.248Z,100095.70
2018-09-17T11:03:42.722Z,100093.86
2018-09-17T11:06:48.487Z,100088.10
2018-09-17T11:09:53.039Z,100079.95
2018-09-17T11:12:57.493Z,100072.48
2018-09-17T11:16:02.133Z,100069.23
2018-09-17T11:19:06.751Z,100065.09
2018-09-17T11:22:11.246Z,100062.75
2018-09-17T11:25:15.960Z,100057.36
2018-09-17T11:28:20.443Z,100056.27
2018-09-17T11:31:25.239Z,100048.85
2018-09-17T11:34:29.697Z,100046.45
2018-09-17T11:37:34.196Z,100040.93
2018-09-17T11:40:39.713Z,100047.85
2018-09-17T11:43:44.372Z,100048.22
2018-09-17T11:46:48.989Z,100044.92
2018-09-17T11:49:53.461Z,100046.26
2018-09-17T11:52:57.984Z,100037.52
2018-09-17T11:56:02.621Z,100037.73
2018-09-17T11:59:07.069Z,100032.83
2018-09-17T12:02:16.827Z,100031.03
2018-09-17T12:05:26.416Z,100031.62
2018-09-17T12:08:30.921Z,100025.34
2018-09-17T12:11:35.649Z,100022.57
2018-09-17T12:14:40.244Z,100021.80
2018-09-17T12:17:44.735Z,100016.70
2018-09-17T12:20:49.257Z,100011.06
2018-09-17T12:23:53.780Z,100012.02
2018-09-17T12:26:58.312Z,99998.80
2018-09-17T12:30:02.953Z,99998.08
2018-09-17T12:33:07.563Z,99998.98
2018-09-17T12:36:12.102Z,99998.34
2018-09-17T12:39:16.601Z,99994.09
2018-09-17T12:42:21.136Z,99988.66
2018-09-17T12:45:26.150Z,99984.06
2018-09-17T12:48:30.627Z,99979.77
2018-09-17T12:51:35.262Z,99986.30
2018-09-17T12:54:39.754Z,99983.70
2018-09-17T12:57:44.297Z,99980.92
2018-09-17T13:00:49.098Z,99981.81
2018-09-17T13:03:53.524Z,99976.41
2018-09-17T13:06:58.052Z,99973.33
2018-09-17T13:10:02.520Z,99970.54
2018-09-17T13:13:07.048Z,99959.80
2018-09-17T13:16:11.532Z,99956.50
2018-09-17T13:19:16.042Z,99952.58
2018-09-17T13:22:20.543Z,99956.77
2018-09-17T13:25:25.096Z,99955.76
2018-09-17T13:28:29.660Z,99947.11
2018-09-17T13:31:34.503Z,99949.87
2018-09-17T13:34:39.611Z,99941.87
2018-09-17T13:37:44.159Z,99941.67
2018-09-17T13:40:48.688Z,99951.74
2018-09-17T13:43:53.234Z,99944.24
2018-09-17T13:46:57.791Z,99936.78
2018-09-17T13:50:02.360Z,99941.41
2018-09-17T13:53:06.925Z,99932.64
2018-09-17T13:56:11.523Z,99926.92
2018-09-17T13:59:16.072Z,99927.09
2018-09-17T14:02:20.858Z,99923.09
2018-09-17T14:05:25.422Z,99918.19
2018-09-17T14:08:29.936Z,99913.70
2018-09-17T14:11:34.410Z,99913.36
2018-09-17T14:14:39.026Z,99913.23
2018-09-17T14:17:43.554Z,99907.14
2018-09-17T14:20:48.223Z,99902.41
2018-09-17T14:23:53.880Z,99892.59
2018-09-17T14:26:58.406Z,99894.70
2018-09-17T14:30:02.928Z,99895.73
2018-09-17T14:33:12.675Z,99888.20
2018-09-17T14:36:17.442Z,99883.66
2018-09-17T14:39:21.879Z,99883.11
2018-09-17T14:42:26.462Z,99875.55
2018-09-17T14:45:30.929Z,99872.55
2018-09-17T14:48:35.474Z,99869.08
2018-09-17T14:51:40.064Z,99868.48
2018-09-17T14:54:44.699Z,99867.03
2018-09-17T14:57:49.154Z,99864.14
2018-09-17T15:00:53.770Z,99861.80
2018-09-17T15:03:58.412Z,99862.88
2018-09-17T15:07:02.879Z,99855.47
2018-09-17T15:10:07.606Z,99852.90
2018-09-17T15:13:12.102Z,99856.56
2018-09-17T15:16:16.760Z,99854.96
2018-09-17T15:19:21.249Z,99856.56
2018-09-17T15:22:25.812Z,99850.52
2018-09-17T15:25:30.371Z,99842.39
2018-09-17T15:28:38.742Z,99846.80
2018-09-17T15:31:43.272Z,99841.57
2018-09-17T15:34:47.756Z,99840.34
2018-09-17T15:37:52.878Z,99835.72
2018-09-17T15:40:57.546Z,99836.53
2018-09-17T15:44:02.030Z,99830.24
2018-09-17T15:47:06.648Z,99826.59
2018-09-17T15:50:11.177Z,99822.52
2018-09-17T15:53:15.724Z,99821.83
2018-09-17T15:56:20.401Z,99819.24
2018-09-17T15:59:24.931Z,99820.59
2018-09-17T16:02:29.423Z,99814.28
2018-09-17T16:05:33.968Z,99816.02
2018-09-17T16:08:38.681Z,99809.97
2018-09-17T16:11:43.242Z,99808.41
2018-09-17T16:14:47.774Z,99813.17
2018-09-17T16:17:52.377Z,99819.95
2018-09-17T16:20:56.953Z,99820.23
2018-09-17T16:24:01.489Z,99813.67
2018-09-17T16:27:06.102Z,99814.62
2018-09-17T16:30:11.797Z,99818.17
2018-09-17T16:33:16.298Z,99817.14
2018-09-17T16:36:21.013Z,99820.70
2018-09-17T16:39:25.615Z,99815.05
2018-09-17T16:42:30.076Z,99813.03
2018-09-17T16:45:34.612Z,99819.91
2018-09-17T16:48:39.247Z,99820.52
2018-09-17T16:51:43.710Z,99820.69
2018-09-17T16:54:48.432Z,99827.13
2018-09-17T16:57:52.902Z,99825.77
2018-09-17T17:00:57.415Z,99824.32
2018-09-17T17:04:01.953Z,99822.65
2018-09-17T17:07:06.459Z,99830.95
2018-09-17T17:10:11.296Z,99818.50
2018-09-17T17:13:15.794Z,99831.06
2018-09-17T17:16:20.488Z,99827.40
2018-09-17T17:19:24.940Z,99834.87
2018-09-17T17:22:29.422Z,99833.45
2018-09-17T17:25:34.022Z,99830.31
2018-09-17T17:28:38.571Z,99834.83
2018-09-17T17:31:43.096Z,99827.00
2018-09-17T17:34:47.591Z,99825.19
2018-09-17T17:37:52.079Z,99827.47
2018-09-17T17:40:56.615Z,99823.97
2018-09-17T17:44:01.089Z,99826.77
2018-09-17T17:47:05.795Z,99822.43
2018-09-17T17:50:10.381Z,99823.81
2018-09-17T17:53:14.967Z,99827.34
2018-09-17T17:56:19.536Z,99836.66
2018-09-17T17:59:24.045Z,99846.25
2018-09-17T18:02:28.568Z,99851.17
2018-09-17T18:05:33.102Z,99848.95
2018-09-17T18:08:37.698Z,99854.66
2018-09-17T18:11:42.201Z,99855.77
2018-09-17T18:14:46.744Z,99858.97
2018-09-17T18:17:51.259Z,99862.47
2018-09-17T18:20:55.837Z,99867.60
2018-09-17T18:24:00.484Z,99873.27
2018-09-17T18:27:05.102Z,99866.16
2018-09-17T18:30:10.075Z,99865.35
2018-09-17T18:33:14.575Z,99871.23
2018-09-17T18:36:19.183Z,99863.75
2018-09-17T18:39:23.781Z,99872.08
2018-09-17T18:42:28.267Z,99869.02
2018-09-17T18:45:32.737Z,99865.67
2018-09-17T18:48:37.325Z,99868.88
2018-09-17T18:51:41.767Z,99872.34
2018-09-17T18:54:46.254Z,99869.47
2018-09-17T18:57:50.827Z,99880.30
2018-09-17T19:00:55.322Z,99876.22
2018-09-17T19:04:00.030Z,99881.47
2018-09-17T19:07:04.546Z,99876.78
2018-09-17T19:10:09.157Z,99883.62
2018-09-17T19:13:13.907Z,99881.92
2018-09-17T19:16:22.856Z,99880.49
2018-09-17T19:20:14.968Z,99876.20
2018-09-17T19:23:24.813Z,99874.23
2018-09-17T19:26:32.482Z,99870.86
2018-09-17T19:29:36.933Z,99877.25
2018-09-17T19:32:41.460Z,99880.55
2018-09-17T19:35:46.019Z,99885.53
2018-09-17T19:38:55.792Z,99888.17
2018-09-17T19:42:00.486Z,99887.23
2018-09-17T19:45:10.209Z,99883.58
2018-09-17T19:48:14.963Z,99884.81
2018-09-17T19:51:24.661Z,99886.78
2018-09-17T19:54:29.359Z,99888.10
2018-09-17T19:57:39.104Z,99888.52
2018-09-17T20:00:43.758Z,99894.41
2018-09-17T20:03:48.300Z,99890.73
2018-09-17T20:06:52.771Z,99893.44
2018-09-17T20:09:57.672Z,99883.98
2018-09-17T20:13:02.180Z,99884.30
2018-09-17T20:16:06.748Z,99888.05
2018-09-17T20:19:11.340Z,99894.24
2018-09-17T20:22:15.866Z,99887.68
2018-09-17T20:25:20.514Z,99887.95
2018-09-17T20:28:25.454Z,99884.09
2018-09-17T20:31:30.039Z,99887.97
2018-09-17T20:34:35.723Z,99885.14
2018-09-17T20:37:40.200Z,99886.39
2018-09-17T20:40:44.849Z,99878.05
2018-09-17T20:43:50.567Z,99885.27
2018-09-17T20:46:55.341Z,99886.34
2018-09-17T20:50:00.087Z,99890.55
2018-09-17T20:53:04.690Z,99881.70
2018-09-17T20:56:09.803Z,99884.62
2018-09-17T20:59:14.225Z,99888.61
2018-09-17T21:02:18.786Z,99887.37
2018-09-17T21:05:23.340Z,99892.80
2018-09-17T21:08:27.816Z,99890.56
2018-09-17T21:11:32.482Z,99887.98
2018-09-17T21:14:37.059Z,99888.34
2018-09-17T21:17:41.537Z,99891.14
2018-09-17T21:20:47.169Z,99887.49
2018-09-17T21:23:51.641Z,99885.79
2018-09-17T21:26:56.215Z,99886.29
2018-09-17T21:30:00.867Z,99888.45
2018-09-17T21:33:05.361Z,99886.33
2018-09-17T21:36:09.952Z,99878.20
2018-09-17T21:39:15.402Z,99877.42
2018-09-17T21:42:20.034Z,99878.24
2018-09-17T21:45:24.543Z,99882.28
2018-09-17T21:48:29.153Z,99872.55
2018-09-17T21:51:33.706Z,99878.90
2018-09-17T21:54:38.210Z,99871.70
2018-09-17T21:58:03.324Z,99870.21
2018-09-17T22:01:08.062Z,99872.17
2018-09-17T22:04:24.021Z,99871.20
2018-09-17T22:07:29.087Z,99870.92
2018-09-17T22:10:33.973Z,99876.02
2018-09-17T22:13:39.460Z,99872.03
2018-09-17T22:16:44.242Z,99873.19
2018-09-17T22:19:49.231Z,99876.50
2018-09-17T22:22:54.144Z,99873.96
2018-09-17T22:25:59.408Z,99868.86
2018-09-17T22:29:04.588Z,99866.44
2018-09-17T22:32:09.087Z,99866.63
2018-09-17T22:35:14.126Z,99863.31
2018-09-17T22:38:19.359Z,99862.11
2018-09-17T22:41:24.357Z,99863.25
2018-09-17T22:44:29.008Z,99863.67
2018-09-17T22:47:33.856Z,99853.02
2018-09-17T22:50:38.551Z,99855.19
2018-09-17T22:53:43.360Z,99846.85
2018-09-17T22:56:47.859Z,99853.63
2018-09-17T22:59:52.256Z,99859.27
2018-09-17T23:02:56.807Z,99852.80
2018-09-17T23:06:01.298Z,99847.03
2018-09-17T23:09:09.192Z,99851.09
2018-09-17T23:12:13.638Z,99848.06
2018-09-17T23:15:18.128Z,99849.73
2018-09-17T23:18:22.608Z,99843.27
2018-09-17T23:21:27.142Z,99840.39
2018-09-17T23:24:31.626Z,99844.57
2018-09-17T23:27:36.819Z,99837.98
2018-09-17T23:30:41.399Z,99840.84
2018-09-17T23:33:45.901Z,99843.22
2018-09-17T23:36:50.434Z,99842.77
2018-09-17T23:39:54.987Z,99837.91
2018-09-17T23:42:59.444Z,99833.71
2018-09-17T23:46:04.058Z,99837.02
2018-09-17T23:49:08.618Z,99841.96
2018-09-17T23:52:13.123Z,99839.25
2018-09-17T23:55:17.685Z,99838.52
2018-09-17T23:58:22.202Z,99837.38
